Clintonville, New York
Current Conditions -  °F | °C
As of 11:53 PM on Saturday 20 Dec 2014 (Local Time) from KPBG Reporting Station
Overcast Overcast  
Wind Chill: 16°   Ceiling: 1000
Heat Index: 16°   Visibility: 7mi
Dew Point: 12°   Wind: 3mph
Humidity: 84%   Direction: 30°NNE
Pressure: 30.34"   Gusts: NA
Location:  44.5023°N, 73.5719°W
Report Text: KPBG 210453Z AUTO 03003KT 7SM OVC010 M09/M11 A3034 RMK AO2 SLP277 T10891111 410561139
Loading
Personal Weather Stations






























Interactive Weather Map New forecast layout! Learn more

10-Day Weather Forecast

Advertisements
Track Severe Weather on mobile